• Join FlightAware (Why Join?)
  • Login
  • US Flag 
01:00AM EDT


 

Airport Tracker/Info


-or-


 

Live Flight TrackerFlight Track Log ✈ DAL1214 ✈ 31-Jul-2013 ✈ KATL - KCAE

Flight Track Log - Related Links

Times and Time Zones

All times are in EDT time to prevent confusion due to time zone crossing. See the DAL1214 flight status page for this flight to view local times or setup timezone preferences in your user account.

Time Position Orientation Groundspeed Altitude Reporting Facility
EDT Latitude Longitude Course Direction KTS MPH feet Rate Location/Type
01:47PM 33.6333 -84.3667 121° Southeast 184 212 2,700  Level Atlanta TRACON
01:48PM 33.6333 -84.2833 90° East 280 322 4,800 2,700 Climbing Atlanta TRACON
01:49PM 33.6749 -84.0588 73° East  Level Estimated
01:49PM 33.6333 -84.1833 90° East 295 339 8,200  Level Atlanta TRACON
01:49PM 33.6336 -84.1111 90° East 313 360 10,100 1,740 Climbing Atlanta Center
01:50PM 33.6781 -83.9450 118° Southeast  Level FlightAware Approximate
01:50PM 33.6128 -83.9964 102° East 337 388 11,400  Level Atlanta Center
01:51PM 33.6301 -83.8353 118° Southeast  Level FlightAware Approximate
01:51PM 33.5875 -83.8692 103° East 372 428 14,900  Level Atlanta Center
01:52PM 33.5802 -83.7269 121° Southeast  Level FlightAware Approximate
01:52PM 33.5664 -83.7447 101° East 378 435 17,400  Level Atlanta Center
01:53PM 33.5828 -83.6150 81° East 396 456 19,000 1,740 Climbing Atlanta Center
01:54PM 33.6178 -83.4850 72° East 396 456 20,900 1,800 Climbing Atlanta Center
01:55PM 33.6525 -83.3525 72° East 406 467 22,600 1,020 Climbing Atlanta Center
01:56PM 33.6933 -83.2122 71° East 430 495 23,000 180 Climbing Atlanta Center
01:57PM 33.7239 -83.0922 73° East 430 495 23,000  Level Atlanta Center
01:58PM 33.7728 -82.9567 67° East 425 489 23,000  Level Atlanta Center
01:59PM 33.8489 -82.8458 51° Northeast 425 489 23,000  Level Atlanta Center
02:00PM 33.8231 -82.8486 51° Northeast  Level FlightAware Approximate
02:00PM 33.9228 -82.7294 53° Northeast 431 496 23,000  Level Atlanta Center
02:01PM 33.9989 -82.6131 52° Northeast 431 496 23,000  Level Atlanta Center
02:02PM 34.0664 -82.4992 54° Northeast 431 496 23,000  Level Atlanta Center
02:03PM 34.1211 -82.3700 63° Northeast 426 490 23,000 -780 Level Atlanta Center
02:05PM 34.0844 -82.1078 100° East 435 501 20,900 -1,800 Descending Jacksonville Center
02:06PM 34.0667 -81.9625 98° East 441 507 18,000 -4,980 Descending Jacksonville Center
02:07PM 34.0469 -81.8275 100° East 430 495 11,000 -3,540 Descending Jacksonville Center
02:08PM 34.0269 -81.6972 100° East 408 470 11,000 -840 Level Jacksonville Center
02:09PM 33.9842 -81.6053 119° Southeast 348 400 9,400 -2,100 Descending Jacksonville Center
02:10PM 33.9894 -81.5075 86° East 297 342 6,900 -2,640 Descending Jacksonville Center
02:11PM 34.0072 -81.4169 77° East 280 322 4,200 -1,740 Descending Jacksonville Center
02:12PM 33.9856 -81.3397 109° East 257 296 3,500 -840 Descending Jacksonville Center
02:13PM 33.9744 -81.2847 104° East 214 246 2,600 -840 Descending Jacksonville Center
02:14PM 33.9653 -81.2350 103° East 170 196 1,900 -540 Descending Jacksonville Center
02:15PM 33.9478 -81.1778 110° East 160 184 1,600 -300 Descending Jacksonville Center